ADDS TAF Data INFO
IDs: Format: Raw Decoded Include METARs

Data at: 1205 UTC 20 May 2018

KPEQ 201155Z AUTO 04023G30KT 10SM BKN024 OVC034 19/13 A2998 RMK AO2 T01850130 10250 20185

KPEQ 201125Z 2012/2112 06020G30KT P6SM BKN025
  FM201400 06015KT P6SM BKN040
  FM210300 09012KT P6SM BKN035